Time;durP1;ratioP1;P1;durP2;ratioP2;P2;SDS_P1;SDS_P2;PMS_P1;PMS_P2;Temp;Humidity;BMP_temperature;BMP_pressure;BME280_temperature;BME280_humidity;BME280_pressure;Samples;Min_cycle;Max_cycle;Signal;HPM_P1;HPM_P2
2023/03/07 00:03:37;;;;;;;7.32;4.25;;;;;;;-5.46;79.71;98983.53;10604011;28;20527;-80
2023/03/07 00:08:40;;;;;;;8.05;4.13;;;;;;;-5.49;79.44;98983.97;10589626;28;20055;-76
2023/03/07 00:13:42;;;;;;;5.15;3.28;;;;;;;-5.69;79.00;98978.78;10609398;28;20127;-77
2023/03/07 00:18:44;;;;;;;4.63;3.13;;;;;;;-5.86;79.83;98985.69;10556697;28;20043;-77
2023/03/07 00:23:47;;;;;;;3.90;2.60;;;;;;;-5.92;79.85;98983.91;10604619;28;20065;-78
2023/03/07 00:28:51;;;;;;;3.53;2.85;;;;;;;-6.08;79.88;98971.88;10607466;28;20504;-79
2023/03/07 00:33:53;;;;;;;3.70;2.60;;;;;;;-6.14;80.71;98970.06;10578978;28;20048;-77
2023/03/07 00:38:55;;;;;;;3.65;2.80;;;;;;;-6.24;80.31;98975.06;10582584;28;20036;-78
2023/03/07 00:43:58;;;;;;;2.63;2.25;;;;;;;-6.03;79.84;98976.59;10599125;28;20599;-77
2023/03/07 00:49:00;;;;;;;4.00;2.45;;;;;;;-6.19;79.69;98972.56;10596144;28;20044;-76
2023/03/07 00:54:02;;;;;;;3.85;2.55;;;;;;;-6.13;79.99;98977.06;10567716;28;20044;-76
2023/03/07 00:59:04;;;;;;;4.65;2.47;;;;;;;-5.83;79.58;98983.41;10584318;28;20032;-77
2023/03/07 01:04:07;;;;;;;5.13;2.92;;;;;;;-5.72;79.28;98989.09;10580750;28;20043;-77
2023/03/07 01:09:09;;;;;;;4.15;2.72;;;;;;;-5.86;78.51;98985.69;10553114;28;20047;-77
2023/03/07 01:14:12;;;;;;;3.08;2.40;;;;;;;-5.92;78.88;98987.38;10566792;28;20046;-77
2023/03/07 01:19:14;;;;;;;4.97;2.97;;;;;;;-5.67;78.57;98984.75;10602600;28;20066;-77
2023/03/07 01:24:17;;;;;;;4.70;2.78;;;;;;;-5.73;78.53;98985.59;10581315;28;20048;-76
2023/03/07 01:29:19;;;;;;;3.95;2.90;;;;;;;-5.62;78.52;98989.41;10613142;28;20412;-77
2023/03/07 01:34:22;;;;;;;4.43;2.55;;;;;;;-5.73;77.99;98985.59;10593700;28;20035;-77
2023/03/07 01:39:26;;;;;;;4.32;2.80;;;;;;;-5.62;77.91;98986.75;10615275;28;20039;-78
2023/03/07 01:45:05;;;;;;;5.53;3.05;;;;;;;-5.74;77.53;98996.50;10605510;28;20048;-77
2023/03/07 01:50:19;;;;;;;4.72;2.60;;;;;;;-5.85;78.03;98993.50;10577156;28;20039;-78
2023/03/07 01:55:28;;;;;;;3.83;2.60;;;;;;;-5.49;77.37;98983.97;10574519;28;20054;-77
2023/03/07 02:00:37;;;;;;;4.35;2.80;;;;;;;-5.54;76.92;98984.66;10583775;28;20500;-78
2023/03/07 02:05:46;;;;;;;4.50;2.90;;;;;;;-5.18;76.47;98986.59;10578736;28;20504;-77
2023/03/07 02:10:48;;;;;;;6.10;3.05;;;;;;;-4.90;75.90;98986.09;10572971;28;20452;-78
2023/03/07 02:15:51;;;;;;;4.75;2.53;;;;;;;-4.86;75.10;98981.97;10597124;28;20783;-77
2023/03/07 02:21:08;;;;;;;4.15;2.72;;;;;;;-4.82;74.79;98990.34;10573461;28;20047;-77
2023/03/07 02:26:22;;;;;;;4.13;2.45;;;;;;;-5.10;74.56;98993.50;10586111;28;20043;-78
2023/03/07 02:31:26;;;;;;;4.28;3.05;;;;;;;-5.09;75.21;98997.81;10576563;28;20047;-77
2023/03/07 02:36:31;;;;;;;4.75;3.30;;;;;;;-5.24;75.18;98997.31;10587958;28;20047;-76
2023/03/07 02:41:49;;;;;;;5.10;3.13;;;;;;;-5.23;75.69;98993.63;10572201;28;20042;-77
2023/03/07 02:47:00;;;;;;;3.70;2.85;;;;;;;-5.17;76.21;98998.09;10578351;28;20040;-77
2023/03/07 02:52:04;;;;;;;4.15;2.97;;;;;;;-5.07;76.12;99003.75;10591890;28;20039;-76
2023/03/07 02:57:09;;;;;;;6.72;3.55;;;;;;;-5.92;75.21;99008.75;10562937;28;20035;-77
2023/03/07 03:02:12;;;;;;;6.22;3.58;;;;;;;-6.09;76.87;99007.63;10590960;28;20040;-77
2023/03/07 03:07:14;;;;;;;5.75;3.97;;;;;;;-6.39;77.14;99012.72;10589942;28;20048;-77
2023/03/07 03:12:16;;;;;;;7.55;4.45;;;;;;;-6.53;78.23;99011.94;10606489;28;20035;-78
2023/03/07 03:17:20;;;;;;;5.93;3.50;;;;;;;-6.68;78.54;99012.19;10608858;28;20044;-77
2023/03/07 03:22:22;;;;;;;5.93;3.47;;;;;;;-6.63;79.21;99008.88;10569707;28;20055;-77
2023/03/07 03:27:26;;;;;;;6.55;3.38;;;;;;;-6.52;78.66;99015.41;10585012;28;20058;-78
2023/03/07 03:32:28;;;;;;;5.22;3.65;;;;;;;-6.72;78.92;99018.16;10588523;27;20043;-77
2023/03/07 03:37:31;;;;;;;6.93;4.13;;;;;;;-6.97;78.92;99018.00;10591338;28;20046;-77
2023/03/07 03:42:34;;;;;;;8.68;4.95;;;;;;;-6.96;79.89;99018.81;10576144;28;20058;-79
2023/03/07 03:47:39;;;;;;;9.43;4.47;;;;;;;-7.18;79.68;99026.22;10566479;28;20052;-79
2023/03/07 03:52:43;;;;;;;8.82;4.78;;;;;;;-7.28;79.73;99025.84;10579649;28;20044;-77
2023/03/07 03:57:47;;;;;;;6.38;4.28;;;;;;;-7.16;79.96;99035.66;10585254;28;20047;-76
2023/03/07 04:02:50;;;;;;;6.47;4.00;;;;;;;-7.09;80.16;99030.34;10581429;28;20043;-78
2023/03/07 04:07:53;;;;;;;6.72;4.20;;;;;;;-6.96;79.88;99035.63;10599363;28;20424;-77
2023/03/07 04:12:56;;;;;;;8.52;4.13;;;;;;;-6.89;79.68;99036.44;10589549;28;20040;-77
2023/03/07 04:17:58;;;;;;;9.27;4.88;;;;;;;-6.75;79.58;99031.91;10597888;28;20043;-78
2023/03/07 04:23:01;;;;;;;5.80;4.25;;;;;;;-6.83;79.33;99032.94;10607789;28;20520;-78
2023/03/07 04:28:04;;;;;;;8.32;4.38;;;;;;;-6.84;79.37;99043.81;10574834;28;20040;-78
2023/03/07 04:33:06;;;;;;;5.70;4.03;;;;;;;-6.95;80.10;99041.78;10579240;28;20070;-77
2023/03/07 04:38:09;;;;;;;6.97;4.30;;;;;;;-6.65;80.08;99045.63;10606713;28;20044;-77
2023/03/07 04:43:11;;;;;;;6.60;4.20;;;;;;;-6.57;80.06;99050.75;10585352;28;20040;-77
2023/03/07 04:48:14;;;;;;;5.85;4.20;;;;;;;-6.51;79.85;99049.88;10588834;28;20046;-78
2023/03/07 04:53:18;;;;;;;6.88;4.15;;;;;;;-6.65;80.24;99066.13;10590240;27;20094;-78
2023/03/07 04:58:21;;;;;;;7.57;4.63;;;;;;;-6.61;80.62;99062.84;10573006;28;20047;-78
2023/03/07 05:03:25;;;;;;;4.18;3.40;;;;;;;-6.80;81.03;99071.69;10604253;28;20032;-78
2023/03/07 05:08:28;;;;;;;5.53;3.53;;;;;;;-6.90;81.16;99074.81;10585912;28;20052;-79
2023/03/07 05:13:30;;;;;;;5.18;3.22;;;;;;;-6.84;81.20;99081.16;10588095;28;20040;-78
2023/03/07 05:18:33;;;;;;;9.85;3.83;;;;;;;-6.75;80.94;99094.06;10555389;28;20055;-79
2023/03/07 05:23:36;;;;;;;5.65;3.60;;;;;;;-6.85;80.54;99095.50;10589247;28;20412;-79
2023/03/07 05:28:38;;;;;;;5.88;3.50;;;;;;;-6.83;79.86;99098.78;10545132;28;20040;-81
2023/03/07 05:33:41;;;;;;;5.07;3.17;;;;;;;-6.97;79.78;99102.47;10548598;28;20044;-79
2023/03/07 05:38:44;;;;;;;4.47;2.88;;;;;;;-6.93;79.79;99106.41;10576300;28;20489;-80
2023/03/07 05:43:49;;;;;;;6.45;3.30;;;;;;;-6.90;79.54;99112.13;10593366;28;20047;-78
2023/03/07 05:48:51;;;;;;;5.43;2.70;;;;;;;-6.86;79.00;99108.03;10577928;28;20433;-78
2023/03/07 05:53:53;;;;;;;3.42;2.28;;;;;;;-6.96;78.42;99115.59;10569507;28;20066;-78
2023/03/07 05:58:56;;;;;;;4.60;2.53;;;;;;;-7.06;79.09;99121.38;10575052;28;20040;-77
2023/03/07 06:03:58;;;;;;;5.55;2.65;;;;;;;-6.94;78.33;99113.59;10584129;28;20043;-78
2023/03/07 06:09:01;;;;;;;3.78;2.53;;;;;;;-6.76;77.74;99112.94;10603733;28;20054;-78
2023/03/07 06:14:03;;;;;;;6.18;2.70;;;;;;;-6.89;77.54;99120.97;10601029;28;20039;-79
2023/03/07 06:19:07;;;;;;;8.30;2.88;;;;;;;-6.85;77.27;99128.34;10619598;28;20067;-78
2023/03/07 06:24:09;;;;;;;4.38;2.13;;;;;;;-6.48;76.56;99134.03;10598241;28;20416;-78
2023/03/07 06:29:11;;;;;;;4.15;2.45;;;;;;;-6.47;76.61;99130.34;10594926;28;20043;-78
2023/03/07 06:34:13;;;;;;;3.30;2.10;;;;;;;-6.47;75.96;99135.66;10586137;28;20412;-78
2023/03/07 06:39:19;;;;;;;7.15;3.28;;;;;;;-6.17;75.68;99141.34;10579258;28;20043;-79
2023/03/07 06:44:23;;;;;;;7.25;2.72;;;;;;;-5.91;75.25;99141.25;10572069;28;20500;-78
2023/03/07 06:49:25;;;;;;;5.57;2.63;;;;;;;-5.42;74.25;99139.75;10564713;28;20047;-78
2023/03/07 06:54:27;;;;;;;4.25;3.00;;;;;;;-5.22;72.60;99151.16;10599603;28;20043;-79
2023/03/07 06:59:31;;;;;;;4.88;3.08;;;;;;;-5.08;72.37;99151.06;10605174;28;20044;-79
2023/03/07 07:04:34;;;;;;;7.47;3.15;;;;;;;-5.03;72.55;99156.56;10590720;28;20054;-77
2023/03/07 07:09:37;;;;;;;5.47;3.45;;;;;;;-4.93;72.27;99160.41;10605888;28;20057;-79
2023/03/07 07:14:39;;;;;;;6.82;3.47;;;;;;;-5.04;72.41;99157.59;10600788;28;20040;-79
2023/03/07 07:19:46;;;;;;;6.78;3.30;;;;;;;-5.21;72.87;99168.84;10563942;28;20664;-79
2023/03/07 07:24:48;;;;;;;5.40;3.58;;;;;;;-5.11;73.24;99180.91;10565095;28;20584;-78
2023/03/07 07:29:51;;;;;;;5.88;3.20;;;;;;;-5.24;73.12;99189.81;10577448;28;20500;-79
2023/03/07 07:34:54;;;;;;;9.52;3.72;;;;;;;-5.01;73.37;99187.44;10638063;27;20050;-78
2023/03/07 07:39:56;;;;;;;5.22;2.70;;;;;;;-5.12;73.27;99188.13;10622666;27;20047;-79
2023/03/07 07:44:59;;;;;;;4.53;2.88;;;;;;;-5.26;73.41;99205.28;10572282;28;20401;-79
2023/03/07 07:50:05;;;;;;;4.35;2.30;;;;;;;-5.31;74.16;99208.59;10597194;28;20043;-79
2023/03/07 07:55:12;;;;;;;3.65;2.67;;;;;;;-5.48;74.22;99204.78;10579948;28;20054;-79
2023/03/07 08:00:19;;;;;;;4.70;3.28;;;;;;;-5.42;74.19;99221.78;10595396;28;20318;-79
2023/03/07 08:05:26;;;;;;;4.97;2.83;;;;;;;-5.20;74.43;99223.97;10596853;28;20063;-79
2023/03/07 08:10:28;;;;;;;4.80;2.58;;;;;;;-5.01;73.41;99216.03;10614680;28;20059;-79
2023/03/07 08:15:31;;;;;;;3.85;2.08;;;;;;;-4.85;73.19;99220.88;10608540;28;20051;-78
2023/03/07 08:20:34;;;;;;;4.70;2.15;;;;;;;-4.46;71.62;99225.13;10613266;28;20043;-78
2023/03/07 08:25:36;;;;;;;3.20;2.20;;;;;;;-3.57;69.82;99225.66;10576235;28;20071;-79
2023/03/07 08:30:42;;;;;;;4.00;2.33;;;;;;;-3.11;68.19;99225.09;10578767;28;20043;-81
2023/03/07 08:35:45;;;;;;;3.88;2.58;;;;;;;-2.74;66.46;99218.56;10588233;28;20416;-80
2023/03/07 08:40:47;;;;;;;3.35;2.33;;;;;;;-1.97;64.34;99228.47;10579198;28;20046;-79
2023/03/07 08:45:50;;;;;;;4.60;2.50;;;;;;;-1.89;63.40;99238.88;10577654;28;20054;-79
2023/03/07 08:51:17;;;;;;;2.88;2.17;;;;;;;-2.01;62.83;99244.25;10613881;28;20047;-80
2023/03/07 08:56:20;;;;;;;2.63;2.38;;;;;;;-2.71;63.70;99251.38;10578097;28;20060;-79
2023/03/07 09:01:23;;;;;;;4.60;2.58;;;;;;;-3.22;65.67;99252.69;10612547;28;20043;-78
2023/03/07 09:06:26;;;;;;;3.65;2.70;;;;;;;-3.38;66.30;99267.53;10612767;28;20159;-80
2023/03/07 09:11:28;;;;;;;4.32;2.90;;;;;;;-3.61;67.49;99273.56;10613403;28;20515;-80
2023/03/07 09:16:31;;;;;;;4.85;2.60;;;;;;;-3.80;67.54;99285.31;10612345;28;20051;-79
2023/03/07 09:21:33;;;;;;;4.47;2.63;;;;;;;-4.02;67.85;99283.00;10591534;28;20338;-79
2023/03/07 09:26:35;;;;;;;5.78;2.83;;;;;;;-4.10;68.58;99285.97;10576540;28;20032;-80
2023/03/07 09:31:37;;;;;;;4.13;2.38;;;;;;;-4.10;68.69;99290.53;10597015;28;20043;-80
2023/03/07 09:36:40;;;;;;;3.30;2.13;;;;;;;-3.98;68.53;99294.97;10620723;28;20044;-79
2023/03/07 09:42:10;;;;;;;3.90;2.47;;;;;;;-3.86;68.48;99299.56;10601969;28;20051;-79
2023/03/07 09:47:42;;;;;;;3.95;2.15;;;;;;;-3.60;67.79;99299.31;10620345;28;20042;-79
2023/03/07 09:52:44;;;;;;;2.53;1.90;;;;;;;-3.70;67.30;99305.19;10602632;28;20027;-80
2023/03/07 09:57:54;;;;;;;2.85;2.05;;;;;;;-3.91;66.81;99310.97;10601720;28;20054;-80
2023/03/07 10:03:17;;;;;;;2.80;1.80;;;;;;;-4.49;67.91;99313.06;10601626;28;20046;-79
2023/03/07 10:08:23;;;;;;;4.65;1.83;;;;;;;-4.17;68.16;99316.53;10605622;28;20536;-79
2023/03/07 10:13:34;;;;;;;2.45;1.80;;;;;;;-4.24;68.29;99327.31;10621484;28;20039;-80
2023/03/07 10:19:20;;;;;;;4.47;2.35;;;;;;;-4.21;68.08;99329.53;10570955;28;20130;-80
2023/03/07 10:24:33;;;;;;;3.13;2.00;;;;;;;-4.41;67.74;99337.72;10597895;28;20468;-82
2023/03/07 10:29:49;;;;;;;3.60;2.08;;;;;;;-4.64;67.93;99340.94;10638578;28;20095;-79
2023/03/07 10:35:14;;;;;;;1.98;1.52;;;;;;;-4.69;68.99;99340.75;10619487;28;20062;-81
2023/03/07 10:40:19;;;;;;;2.25;1.42;;;;;;;-4.65;68.41;99346.53;10606492;28;20043;-80
2023/03/07 10:45:21;;;;;;;2.25;1.60;;;;;;;-4.60;67.91;99347.50;10623083;28;20043;-80
2023/03/07 10:50:48;;;;;;;2.30;1.67;;;;;;;-4.73;67.43;99344.91;10560601;28;20036;-79
2023/03/07 10:55:51;;;;;;;4.07;1.88;;;;;;;-4.64;67.26;99350.84;10595718;27;20034;-80
2023/03/07 11:01:01;;;;;;;5.90;2.42;;;;;;;-4.84;67.26;99348.25;10608587;27;20234;-80
2023/03/07 11:06:04;;;;;;;3.85;2.10;;;;;;;-4.80;68.07;99343.31;10601180;28;20408;-80
2023/03/07 11:11:24;;;;;;;4.25;2.15;;;;;;;-4.93;67.48;99357.56;10570437;28;20480;-80
2023/03/07 11:16:31;;;;;;;2.53;1.80;;;;;;;-4.73;67.45;99354.78;10561677;28;20040;-80
2023/03/07 11:21:34;;;;;;;3.13;1.63;;;;;;;-4.45;66.71;99357.94;10573639;28;20044;-81
2023/03/07 11:26:39;;;;;;;3.75;1.80;;;;;;;-4.61;65.34;99355.75;10602706;27;20042;-80
2023/03/07 11:31:47;;;;;;;3.38;2.17;;;;;;;-4.81;66.54;99350.50;10609554;27;20036;-80
2023/03/07 11:36:56;;;;;;;2.97;2.30;;;;;;;-5.01;66.21;99361.31;10584516;27;20492;-80
2023/03/07 11:42:02;;;;;;;3.92;2.30;;;;;;;-5.09;66.01;99361.53;10594795;27;20035;-80
2023/03/07 11:47:32;;;;;;;5.07;2.45;;;;;;;-5.17;65.82;99362.59;10596057;28;20035;-80
2023/03/07 11:53:05;;;;;;;3.70;1.90;;;;;;;-5.13;66.56;99368.34;10580579;28;20036;-80
2023/03/07 11:58:29;;;;;;;3.50;2.33;;;;;;;-5.05;64.93;99367.25;10573451;28;20031;-81
2023/03/07 12:03:57;;;;;;;3.30;1.65;;;;;;;-4.71;63.42;99372.25;10606625;27;20047;-79
2023/03/07 12:09:28;;;;;;;1.98;1.60;;;;;;;-4.92;63.84;99376.06;10611213;27;20040;-79
2023/03/07 12:14:46;;;;;;;3.10;1.60;;;;;;;-4.95;64.14;99383.69;10625887;27;20039;-80
2023/03/07 12:20:13;;;;;;;1.73;1.40;;;;;;;-4.47;63.46;99368.03;10603583;27;20036;-80
2023/03/07 12:25:24;;;;;;;3.00;1.67;;;;;;;-4.52;63.53;99375.88;10613645;27;20480;-80
2023/03/07 12:30:36;;;;;;;2.08;1.27;;;;;;;-4.52;62.70;99375.03;10580170;28;20040;-80
2023/03/07 12:35:42;;;;;;;2.70;2.40;;;;;;;-4.35;62.67;99382.34;10580796;28;20418;-79
2023/03/07 12:40:50;;;;;;;3.28;2.10;;;;;;;-4.46;62.74;99377.72;10558438;28;20047;-77
2023/03/07 12:46:37;;;;;;;2.55;1.90;;;;;;;-4.44;62.57;99377.50;10583039;28;20046;-79
2023/03/07 12:51:45;;;;;;;3.90;2.17;;;;;;;-4.50;62.11;99386.38;10555594;28;20036;-78
2023/03/07 12:57:02;;;;;;;2.80;2.40;;;;;;;-4.59;62.22;99386.63;10567919;28;20038;-79
2023/03/07 13:02:13;;;;;;;3.60;2.20;;;;;;;-4.36;62.16;99388.75;10615136;28;20408;-77
2023/03/07 13:07:19;;;;;;;3.33;2.35;;;;;;;-4.49;62.66;99388.03;10598217;28;20469;-79
2023/03/07 13:12:28;;;;;;;3.47;2.20;;;;;;;-4.60;61.91;99387.66;10590594;28;20047;-79
2023/03/07 13:17:32;;;;;;;3.03;2.20;;;;;;;-4.79;61.33;99388.56;10589875;28;20036;-78
2023/03/07 13:22:35;;;;;;;2.78;1.63;;;;;;;-4.88;61.88;99396.00;10624101;28;20035;-82
2023/03/07 13:27:40;;;;;;;2.95;2.08;;;;;;;-4.99;61.75;99402.03;10573411;28;20035;-79
2023/03/07 13:32:54;;;;;;;3.35;1.75;;;;;;;-5.05;62.04;99402.03;10606303;28;20050;-80
2023/03/07 13:38:09;;;;;;;2.15;1.55;;;;;;;-5.08;63.07;99405.13;10600136;28;20042;-79
2023/03/07 13:43:18;;;;;;;2.60;1.75;;;;;;;-5.06;62.85;99406.56;10597911;28;20046;-81
2023/03/07 13:48:23;;;;;;;2.33;1.60;;;;;;;-5.14;63.16;99406.81;10589580;28;20039;-81
2023/03/07 13:53:44;;;;;;;2.28;1.55;;;;;;;-5.27;62.89;99404.97;10628058;28;20032;-80
2023/03/07 13:59:05;;;;;;;2.38;1.73;;;;;;;-5.33;63.09;99405.81;10616959;28;20496;-82
2023/03/07 14:04:53;;;;;;;2.08;1.80;;;;;;;-5.33;63.83;99407.66;10596639;28;20039;-81
2023/03/07 14:09:58;;;;;;;2.97;1.92;;;;;;;-5.34;63.94;99412.19;10588213;28;20444;-79
2023/03/07 14:15:49;;;;;;;2.63;1.90;;;;;;;-5.18;63.99;99419.78;10614711;28;20510;-81
2023/03/07 14:20:55;;;;;;;2.83;2.20;;;;;;;-5.16;63.97;99409.69;10584064;28;20100;-82
2023/03/07 14:26:21;;;;;;;2.90;2.20;;;;;;;-5.28;64.35;99405.19;10579223;28;20044;-78
2023/03/07 14:31:29;;;;;;;2.97;2.30;;;;;;;-5.33;64.57;99410.34;10558743;27;20040;-81
2023/03/07 14:36:31;;;;;;;5.30;2.92;;;;;;;-5.26;64.73;99422.66;10602617;27;20054;-79
2023/03/07 14:41:51;;;;;;;4.03;2.80;;;;;;;-5.25;64.46;99418.94;10582094;28;20047;-82
2023/03/07 14:47:24;;;;;;;3.65;2.60;;;;;;;-5.24;65.22;99422.44;10567968;28;20036;-81
2023/03/07 14:52:29;;;;;;;3.53;2.40;;;;;;;-5.01;67.02;99428.16;10571429;27;20035;-79
2023/03/07 14:57:37;;;;;;;3.60;2.25;;;;;;;-4.92;66.33;99424.22;10588759;28;20040;-80
2023/03/07 15:03:11;;;;;;;2.63;2.13;;;;;;;-4.87;65.63;99420.91;10602314;27;20485;-82
2023/03/07 15:08:20;;;;;;;5.63;2.50;;;;;;;-4.92;65.79;99418.03;10573591;27;20047;-79
2023/03/07 15:13:29;;;;;;;3.75;2.88;;;;;;;-4.74;65.30;99425.41;10611492;28;20039;-79
2023/03/07 15:18:33;;;;;;;2.85;2.50;;;;;;;-4.83;64.48;99424.81;10610284;28;20043;-80
2023/03/07 15:23:35;;;;;;;5.28;3.10;;;;;;;-5.03;64.98;99424.03;10602763;27;20053;-79
2023/03/07 15:28:40;;;;;;;4.82;3.03;;;;;;;-5.07;65.70;99425.50;10621543;27;20043;-79
2023/03/07 15:33:42;;;;;;;4.82;2.80;;;;;;;-5.26;65.76;99438.69;10591290;27;20050;-79
2023/03/07 15:38:49;;;;;;;5.50;2.80;;;;;;;-5.32;66.66;99434.19;10615489;28;20032;-79
2023/03/07 15:44:05;;;;;;;4.53;2.53;;;;;;;-5.31;66.32;99433.16;10594441;27;20038;-80
2023/03/07 15:49:20;;;;;;;3.33;2.50;;;;;;;-5.44;66.77;99435.84;10628992;27;20039;-81
2023/03/07 15:54:31;;;;;;;5.50;3.17;;;;;;;-5.55;66.96;99437.31;10603283;27;20054;-80
2023/03/07 15:59:40;;;;;;;2.88;2.28;;;;;;;-5.58;67.03;99435.03;10592624;28;20035;-81
2023/03/07 16:04:42;;;;;;;3.45;2.15;;;;;;;-5.59;67.27;99443.25;10596803;28;20043;-80
2023/03/07 16:09:44;;;;;;;2.88;1.80;;;;;;;-5.38;66.95;99445.72;10601968;28;20047;-80
2023/03/07 16:14:48;;;;;;;3.22;2.17;;;;;;;-5.60;66.53;99449.63;10614894;28;20514;-80
2023/03/07 16:19:55;;;;;;;2.28;1.80;;;;;;;-5.75;65.76;99439.13;10625001;28;20044;-80
2023/03/07 16:24:57;;;;;;;4.07;2.10;;;;;;;-5.81;66.75;99437.28;10614517;28;20040;-80
2023/03/07 16:29:59;;;;;;;2.67;2.13;;;;;;;-5.91;66.76;99445.72;10614530;28;20050;-80
2023/03/07 16:35:02;;;;;;;3.85;2.10;;;;;;;-5.95;66.86;99449.84;10577052;28;20032;-81
2023/03/07 16:40:07;;;;;;;4.53;2.40;;;;;;;-5.97;67.53;99451.06;10577116;28;20050;-81
2023/03/07 16:45:15;;;;;;;4.90;2.50;;;;;;;-6.02;67.33;99449.03;10536747;28;20416;-80
2023/03/07 16:50:24;;;;;;;4.03;2.50;;;;;;;-6.14;67.77;99462.13;10553340;28;20032;-80
2023/03/07 16:55:30;;;;;;;5.28;2.45;;;;;;;-6.17;68.11;99456.38;10570935;28;20040;-80
2023/03/07 17:00:32;;;;;;;3.55;2.90;;;;;;;-6.15;68.21;99459.66;10557789;28;20039;-80
2023/03/07 17:05:34;;;;;;;3.28;2.70;;;;;;;-6.07;68.86;99459.50;10595193;28;20044;-80
2023/03/07 17:10:38;;;;;;;4.03;2.88;;;;;;;-6.07;68.90;99454.16;10594551;28;20051;-81
2023/03/07 17:15:45;;;;;;;5.75;3.55;;;;;;;-6.12;68.28;99453.91;10593359;28;20476;-80
2023/03/07 17:20:47;;;;;;;5.63;3.60;;;;;;;-6.20;68.51;99448.78;10612015;28;20051;-81
2023/03/07 17:25:50;;;;;;;5.10;3.45;;;;;;;-6.19;68.80;99453.09;10612882;28;20500;-80
2023/03/07 17:30:53;;;;;;;7.45;3.90;;;;;;;-6.25;68.46;99461.88;10612352;28;20036;-80
2023/03/07 17:35:56;;;;;;;5.88;3.58;;;;;;;-6.27;68.51;99456.75;10611681;28;20043;-80
2023/03/07 17:40:59;;;;;;;6.50;4.00;;;;;;;-6.28;69.33;99456.97;10593921;28;20035;-80
2023/03/07 17:46:07;;;;;;;9.32;5.35;;;;;;;-6.28;69.68;99459.63;10610616;28;20420;-80
2023/03/07 17:51:10;;;;;;;9.73;5.55;;;;;;;-6.29;69.29;99463.31;10611905;28;20047;-80
2023/03/07 17:56:12;;;;;;;10.35;5.20;;;;;;;-6.33;69.94;99456.75;10583976;28;20411;-81
2023/03/07 18:01:14;;;;;;;12.00;5.88;;;;;;;-6.41;69.67;99450.56;10620796;28;20556;-81
2023/03/07 18:06:17;;;;;;;9.43;5.63;;;;;;;-6.45;70.25;99459.16;10601581;28;20043;-80
2023/03/07 18:11:20;;;;;;;10.10;5.85;;;;;;;-6.48;70.70;99454.22;10601223;28;20059;-80
2023/03/07 18:16:22;;;;;;;13.55;5.95;;;;;;;-6.50;71.19;99466.94;10619226;28;20031;-81
2023/03/07 18:21:24;;;;;;;10.35;6.18;;;;;;;-6.50;71.74;99467.78;10619817;28;20039;-81
2023/03/07 18:26:27;;;;;;;12.68;6.25;;;;;;;-6.48;71.70;99465.72;10619103;28;20047;-81
2023/03/07 18:31:29;;;;;;;10.48;6.65;;;;;;;-6.49;72.13;99468.59;10583676;28;20036;-81
2023/03/07 18:36:31;;;;;;;11.68;6.90;;;;;;;-6.51;71.54;99466.13;10618051;28;20043;-81
2023/03/07 18:41:34;;;;;;;14.15;8.00;;;;;;;-6.55;72.30;99459.56;10600146;28;20496;-80
2023/03/07 18:46:37;;;;;;;13.27;7.07;;;;;;;-6.58;72.37;99464.47;10619318;28;20043;-81
2023/03/07 18:51:41;;;;;;;11.88;7.03;;;;;;;-6.61;71.93;99456.84;10618115;28;20054;-79
2023/03/07 18:56:45;;;;;;;12.32;7.60;;;;;;;-6.68;72.34;99454.97;10565885;28;20040;-81
2023/03/07 19:01:51;;;;;;;13.77;7.45;;;;;;;-6.67;73.12;99455.81;10582782;28;20035;-81
2023/03/07 19:06:56;;;;;;;13.00;6.95;;;;;;;-6.63;72.58;99459.72;10582065;28;20046;-80
2023/03/07 19:11:59;;;;;;;18.45;8.77;;;;;;;-6.69;72.93;99453.34;10598651;28;20528;-80
2023/03/07 19:17:01;;;;;;;13.63;7.43;;;;;;;-6.71;73.25;99449.22;10616820;28;20062;-80
2023/03/07 19:22:04;;;;;;;11.55;6.85;;;;;;;-6.77;73.38;99444.66;10564895;28;20043;-80
2023/03/07 19:27:06;;;;;;;13.45;6.93;;;;;;;-6.75;73.61;99447.97;10616386;28;20031;-80
2023/03/07 19:32:09;;;;;;;13.68;6.68;;;;;;;-6.79;73.44;99444.03;10563944;28;20040;-81
2023/03/07 19:37:15;;;;;;;12.32;6.60;;;;;;;-6.73;73.81;99440.59;10615832;28;20408;-79
2023/03/07 19:42:20;;;;;;;12.32;6.95;;;;;;;-6.71;73.89;99449.22;10613555;28;20043;-80
2023/03/07 19:47:48;;;;;;;10.90;6.03;;;;;;;-6.73;74.13;99448.59;10600981;28;20039;-80
2023/03/07 19:52:57;;;;;;;10.73;6.18;;;;;;;-6.78;73.67;99454.50;10614905;28;20417;-81
2023/03/07 19:58:00;;;;;;;12.30;6.07;;;;;;;-6.82;73.54;99447.94;10596755;28;20047;-81
2023/03/07 20:03:02;;;;;;;10.95;6.65;;;;;;;-6.80;74.02;99455.72;10615086;28;20039;-80
2023/03/07 20:08:04;;;;;;;10.52;6.53;;;;;;;-6.77;74.35;99444.66;10597603;28;20476;-80
2023/03/07 20:13:07;;;;;;;11.43;6.25;;;;;;;-6.74;73.90;99437.13;10614467;28;20046;-81
2023/03/07 20:18:13;;;;;;;10.93;5.63;;;;;;;-6.72;74.24;99429.72;10595007;28;20043;-80
2023/03/07 20:23:15;;;;;;;9.63;5.72;;;;;;;-6.66;74.47;99424.63;10614316;28;20046;-80
2023/03/07 20:28:17;;;;;;;9.57;5.78;;;;;;;-6.67;74.77;99431.78;10614299;28;20032;-80
2023/03/07 20:33:20;;;;;;;8.60;6.13;;;;;;;-6.69;74.37;99416.00;10595765;28;20051;-80
2023/03/07 20:38:22;;;;;;;8.27;4.82;;;;;;;-6.69;74.77;99410.66;10614333;28;20043;-80
2023/03/07 20:43:24;;;;;;;8.45;4.90;;;;;;;-6.73;74.57;99411.25;10594955;28;20051;-80
2023/03/07 20:48:26;;;;;;;8.50;5.25;;;;;;;-6.81;74.74;99401.56;10614342;28;20043;-80
2023/03/07 20:53:29;;;;;;;6.25;4.90;;;;;;;-6.86;74.70;99405.88;10609272;28;20043;-81
2023/03/07 20:58:32;;;;;;;10.93;6.50;;;;;;;-6.88;75.29;99399.91;10609174;28;20039;-79
2023/03/07 21:03:34;;;;;;;10.00;7.00;;;;;;;-6.91;75.66;99387.00;10613951;28;20036;-80
2023/03/07 21:08:37;;;;;;;9.60;7.93;;;;;;;-6.91;75.00;99403.81;10613158;28;20048;-80
2023/03/07 21:13:41;;;;;;;10.13;6.97;;;;;;;-6.93;75.93;99389.84;10611494;28;20031;-81
2023/03/07 21:18:44;;;;;;;9.20;6.40;;;;;;;-6.97;75.81;99390.44;10612777;28;20385;-80
2023/03/07 21:24:05;;;;;;;9.13;6.20;;;;;;;-7.01;76.97;99382.84;10572726;28;20052;-80
2023/03/07 21:29:07;;;;;;;8.23;6.05;;;;;;;-7.00;76.64;99381.81;10583836;28;20039;-80
2023/03/07 21:34:12;;;;;;;9.27;5.85;;;;;;;-7.06;76.72;99373.78;10621008;28;20509;-79
2023/03/07 21:39:15;;;;;;;9.98;5.93;;;;;;;-7.02;77.48;99370.53;10621197;28;20044;-79
2023/03/07 21:44:18;;;;;;;9.93;5.57;;;;;;;-7.01;77.39;99369.50;10625699;28;20055;-80
2023/03/07 21:49:21;;;;;;;8.52;5.53;;;;;;;-7.04;77.96;99367.25;10652249;28;20102;-80
2023/03/07 21:54:23;;;;;;;8.20;4.60;;;;;;;-7.06;77.75;99369.28;10638780;28;20044;-80
2023/03/07 21:59:27;;;;;;;7.90;4.43;;;;;;;-7.12;78.47;99356.72;10602055;28;20051;-79
2023/03/07 22:04:29;;;;;;;7.07;4.75;;;;;;;-7.13;78.40;99346.28;10602329;28;20049;-82
2023/03/07 22:09:31;;;;;;;6.20;4.18;;;;;;;-7.05;78.63;99351.44;10585390;28;20063;-80
2023/03/07 22:14:34;;;;;;;8.10;4.65;;;;;;;-7.05;78.89;99341.59;10600892;28;20048;-80
2023/03/07 22:19:37;;;;;;;6.93;4.38;;;;;;;-7.04;79.76;99331.75;10619481;28;20035;-80
2023/03/07 22:24:39;;;;;;;6.63;4.40;;;;;;;-7.11;80.71;99329.09;10618739;28;20047;-79
2023/03/07 22:29:42;;;;;;;5.60;4.30;;;;;;;-7.07;80.88;99326.84;10584148;28;20050;-80
2023/03/07 22:34:44;;;;;;;6.70;4.50;;;;;;;-7.05;81.08;99325.59;10600726;28;20412;-78
2023/03/07 22:39:46;;;;;;;6.30;4.22;;;;;;;-7.10;82.15;99322.72;10617748;28;20047;-79
2023/03/07 22:44:49;;;;;;;6.38;4.55;;;;;;;-7.09;82.50;99324.38;10618036;28;20425;-78
2023/03/07 22:49:51;;;;;;;8.10;5.40;;;;;;;-7.08;82.54;99311.84;10583461;28;20040;-80
2023/03/07 22:54:53;;;;;;;6.32;4.72;;;;;;;-7.12;82.93;99313.25;10599464;28;20050;-80
2023/03/07 22:59:55;;;;;;;7.15;4.05;;;;;;;-7.14;82.95;99300.13;10582739;28;20048;-79
2023/03/07 23:04:57;;;;;;;8.05;4.78;;;;;;;-7.10;83.09;99301.41;10617331;28;20420;-79
2023/03/07 23:10:00;;;;;;;5.82;4.07;;;;;;;-7.06;83.52;99283.97;10599300;28;20048;-80
2023/03/07 23:15:03;;;;;;;6.30;4.53;;;;;;;-7.04;83.40;99284.59;10617562;28;20039;-80
2023/03/07 23:20:06;;;;;;;6.47;4.63;;;;;;;-6.99;82.80;99276.81;10615400;28;20040;-80
2023/03/07 23:25:09;;;;;;;7.93;5.30;;;;;;;-6.93;82.62;99267.19;10616845;28;20047;-79
2023/03/07 23:30:12;;;;;;;6.43;4.88;;;;;;;-7.02;82.13;99258.56;10616597;28;20533;-79
2023/03/07 23:35:14;;;;;;;7.22;5.18;;;;;;;-7.07;81.70;99246.84;10624831;27;20046;-80
2023/03/07 23:40:17;;;;;;;6.13;4.43;;;;;;;-7.08;82.12;99246.03;10640871;27;20043;-79
2023/03/07 23:45:20;;;;;;;7.63;5.60;;;;;;;-7.06;81.43;99249.31;10658368;27;20035;-80